createdAt,value
2022-08-17T00:01:22.575Z,17.20
2022-08-17T00:03:52.940Z,17.20
2022-08-17T00:06:24.028Z,17.10
2022-08-17T00:08:51.649Z,17.10
2022-08-17T00:11:19.886Z,17.10
2022-08-17T00:13:47.648Z,17.20
2022-08-17T00:16:18.353Z,17.10
2022-08-17T00:19:01.093Z,17.10
2022-08-17T00:22:30.877Z,17.10
2022-08-17T00:24:19.670Z,17.00
2022-08-17T00:26:47.229Z,16.90
2022-08-17T00:29:17.885Z,16.90
2022-08-17T00:31:46.800Z,16.90
2022-08-17T00:34:13.367Z,16.90
2022-08-17T00:36:39.955Z,16.80
2022-08-17T00:39:06.547Z,16.70
2022-08-17T00:41:35.688Z,16.70
2022-08-17T00:44:02.908Z,16.60
2022-08-17T00:46:30.834Z,16.50
2022-08-17T00:48:57.480Z,16.50
2022-08-17T00:52:11.855Z,16.40
2022-08-17T00:54:41.882Z,16.40
2022-08-17T00:57:13.646Z,16.40
2022-08-17T00:59:41.424Z,16.30
2022-08-17T01:02:08.545Z,16.30
2022-08-17T01:04:35.312Z,16.30
2022-08-17T01:07:01.954Z,16.20
2022-08-17T01:09:28.530Z,16.20
2022-08-17T01:11:55.122Z,16.10
2022-08-17T01:14:22.241Z,16.10
2022-08-17T01:16:49.497Z,16.00
2022-08-17T01:19:17.478Z,16.10
2022-08-17T01:21:49.253Z,16.10
2022-08-17T01:24:15.980Z,16.20
2022-08-17T01:26:42.986Z,16.20
2022-08-17T01:29:09.699Z,16.20
2022-08-17T01:31:38.318Z,16.20
2022-08-17T01:34:07.366Z,16.10
2022-08-17T01:36:34.354Z,16.10
2022-08-17T01:39:00.919Z,16.10
2022-08-17T01:41:27.496Z,16.00
2022-08-17T01:43:55.030Z,16.10
2022-08-17T01:46:23.141Z,16.00
2022-08-17T01:48:51.161Z,16.00
2022-08-17T01:51:17.927Z,16.00
2022-08-17T01:53:46.886Z,16.00
2022-08-17T01:56:14.371Z,16.00
2022-08-17T01:58:41.297Z,15.90
2022-08-17T02:01:08.099Z,15.90
2022-08-17T02:03:34.762Z,15.80
2022-08-17T02:06:01.414Z,15.70
2022-08-17T02:08:38.794Z,15.70
2022-08-17T02:11:11.178Z,15.70
2022-08-17T02:13:38.348Z,15.70
2022-08-17T02:16:04.929Z,15.60
2022-08-17T02:18:31.530Z,15.60
2022-08-17T02:20:58.125Z,15.60
2022-08-17T02:23:24.914Z,15.60
2022-08-17T02:25:51.544Z,15.50
2022-08-17T02:28:18.449Z,15.50
2022-08-17T02:31:00.157Z,15.50
2022-08-17T02:33:42.428Z,15.50
2022-08-17T02:36:10.656Z,15.60
2022-08-17T02:38:37.516Z,15.60
2022-08-17T02:41:04.505Z,15.60
2022-08-17T02:43:31.193Z,15.60
2022-08-17T02:45:57.975Z,15.60
2022-08-17T02:48:30.695Z,15.60
2022-08-17T02:50:57.899Z,15.60
2022-08-17T02:53:24.489Z,15.60
2022-08-17T02:55:52.442Z,15.50
2022-08-17T02:58:34.749Z,15.50
2022-08-17T03:01:03.220Z,15.50
2022-08-17T03:03:29.889Z,15.50
2022-08-17T03:05:56.470Z,15.50
2022-08-17T03:08:23.408Z,15.50
2022-08-17T03:10:50.663Z,15.50
2022-08-17T03:13:17.421Z,15.40
2022-08-17T03:15:47.216Z,15.40
2022-08-17T03:18:19.135Z,15.40
2022-08-17T03:20:52.034Z,15.30
2022-08-17T03:23:18.801Z,15.30
2022-08-17T03:25:53.119Z,15.20
2022-08-17T03:28:20.275Z,15.10
2022-08-17T03:30:46.928Z,15.10
2022-08-17T03:33:13.706Z,15.10
2022-08-17T03:35:40.502Z,15.00
2022-08-17T03:38:07.585Z,15.00
2022-08-17T03:40:56.753Z,15.00
2022-08-17T03:43:21.277Z,15.00
2022-08-17T03:46:10.833Z,15.00
2022-08-17T03:49:11.989Z,15.00
2022-08-17T03:51:57.311Z,15.00
2022-08-17T03:54:42.425Z,15.10
2022-08-17T03:57:09.596Z,15.10
2022-08-17T03:59:36.329Z,15.20
2022-08-17T04:02:04.973Z,15.10
2022-08-17T04:04:31.589Z,15.20
2022-08-17T04:06:58.810Z,15.20
2022-08-17T04:09:25.404Z,15.20
2022-08-17T04:11:52.012Z,15.20
2022-08-17T04:14:18.597Z,15.20
2022-08-17T04:16:45.206Z,15.10
2022-08-17T04:19:11.892Z,15.10
2022-08-17T04:21:38.505Z,15.20
2022-08-17T04:24:05.322Z,15.30
2022-08-17T04:26:52.780Z,15.40
2022-08-17T04:29:18.709Z,15.70
2022-08-17T04:31:45.290Z,16.00
2022-08-17T04:34:12.507Z,16.30
2022-08-17T04:36:39.091Z,16.70
2022-08-17T04:39:05.673Z,16.60
2022-08-17T04:41:51.128Z,16.60
2022-08-17T04:44:37.103Z,16.70
2022-08-17T04:47:04.502Z,17.60
2022-08-17T04:49:32.472Z,18.50
2022-08-17T04:52:01.284Z,19.20
2022-08-17T04:54:31.109Z,19.40
2022-08-17T04:56:57.690Z,19.70
2022-08-17T04:59:24.277Z,20.40
2022-08-17T05:01:51.117Z,20.90
2022-08-17T05:04:33.146Z,21.00
2022-08-17T05:07:01.288Z,21.20
2022-08-17T05:09:28.089Z,21.20
2022-08-17T05:11:55.313Z,21.00
2022-08-17T05:14:33.120Z,21.20
2022-08-17T05:17:00.453Z,21.80
2022-08-17T05:19:27.844Z,22.20
2022-08-17T05:21:54.478Z,23.60
2022-08-17T05:24:38.987Z,24.60
2022-08-17T05:27:07.645Z,24.90
2022-08-17T05:29:35.719Z,25.30
2022-08-17T05:32:38.418Z,25.90
2022-08-17T05:35:02.059Z,26.40
2022-08-17T05:37:28.654Z,26.90
2022-08-17T05:39:55.488Z,27.30
2022-08-17T05:42:22.156Z,27.70
2022-08-17T05:44:48.751Z,28.20
2022-08-17T05:47:15.569Z,28.30
2022-08-17T05:49:42.167Z,27.50
2022-08-17T05:52:12.060Z,26.00
2022-08-17T05:54:57.373Z,24.80
2022-08-17T05:57:23.903Z,23.90
2022-08-17T06:00:06.238Z,23.30
2022-08-17T06:02:36.952Z,23.00
2022-08-17T06:05:10.816Z,23.50
2022-08-17T06:07:41.781Z,24.90
2022-08-17T06:10:12.475Z,26.10
2022-08-17T06:12:39.139Z,27.20
2022-08-17T06:15:26.337Z,28.20
2022-08-17T06:17:57.285Z,28.30
2022-08-17T06:20:24.058Z,29.00
2022-08-17T06:22:51.581Z,29.30
2022-08-17T06:25:19.130Z,30.00
2022-08-17T06:27:59.503Z,30.20
2022-08-17T06:30:27.040Z,30.20
2022-08-17T06:32:55.096Z,30.40
2022-08-17T06:35:30.032Z,30.60
2022-08-17T06:38:04.607Z,30.60
2022-08-17T06:40:31.191Z,31.00
2022-08-17T06:43:16.816Z,31.20
2022-08-17T06:45:49.019Z,31.40
2022-08-17T06:48:24.411Z,31.90
2022-08-17T06:50:55.333Z,32.10
2022-08-17T06:53:27.277Z,32.30
2022-08-17T06:56:01.564Z,32.90
2022-08-17T06:58:31.513Z,32.60
2022-08-17T07:01:06.192Z,32.40
2022-08-17T07:03:41.317Z,32.10
2022-08-17T07:06:17.649Z,32.10
2022-08-17T07:08:47.232Z,32.70
2022-08-17T07:11:14.829Z,32.20
2022-08-17T07:13:52.749Z,30.70
2022-08-17T07:16:25.809Z,29.30
2022-08-17T07:18:53.211Z,28.70
2022-08-17T07:21:27.343Z,28.20
2022-08-17T07:24:03.250Z,28.50
2022-08-17T07:26:29.864Z,29.50
2022-08-17T07:28:56.449Z,29.60
2022-08-17T07:31:23.703Z,29.80
2022-08-17T07:34:01.661Z,29.30
2022-08-17T07:36:33.647Z,29.00
2022-08-17T07:39:00.711Z,28.80
2022-08-17T07:41:28.466Z,28.60
2022-08-17T07:44:15.170Z,28.40
2022-08-17T07:47:09.167Z,28.30
2022-08-17T07:49:37.068Z,28.40
2022-08-17T07:52:47.508Z,30.10
2022-08-17T07:54:52.960Z,31.70
2022-08-17T07:57:20.193Z,33.00
2022-08-17T08:00:02.037Z,33.80
2022-08-17T08:02:40.190Z,33.80
2022-08-17T08:05:12.920Z,34.20
2022-08-17T08:07:42.323Z,34.20
2022-08-17T08:10:13.696Z,34.10
2022-08-17T08:12:41.208Z,34.40
2022-08-17T08:15:21.309Z,34.30
2022-08-17T08:17:52.254Z,34.70
2022-08-17T08:20:50.957Z,34.30
2022-08-17T08:23:18.671Z,34.40
2022-08-17T08:25:53.636Z,34.40
2022-08-17T08:28:39.093Z,34.30
2022-08-17T08:31:08.848Z,33.90
2022-08-17T08:33:40.463Z,33.30
2022-08-17T08:37:15.958Z,33.00
2022-08-17T08:39:06.173Z,32.60
2022-08-17T08:41:35.411Z,32.00
2022-08-17T08:44:12.854Z,31.50
2022-08-17T08:46:51.647Z,31.20
2022-08-17T08:49:51.917Z,31.10
2022-08-17T08:52:22.638Z,31.10
2022-08-17T08:54:54.745Z,30.80
2022-08-17T08:57:34.333Z,30.90
2022-08-17T09:00:04.644Z,30.90
2022-08-17T09:02:34.595Z,31.00
2022-08-17T09:05:15.635Z,31.30
2022-08-17T09:08:17.957Z,31.60
2022-08-17T09:10:56.706Z,31.90
2022-08-17T09:13:38.403Z,31.80
2022-08-17T09:16:06.672Z,31.80
2022-08-17T09:19:00.906Z,31.90
2022-08-17T09:21:26.780Z,32.10
2022-08-17T09:24:02.399Z,32.30
2022-08-17T09:26:31.378Z,32.30
2022-08-17T09:29:01.445Z,32.40
2022-08-17T09:31:41.873Z,32.60
2022-08-17T09:34:18.149Z,32.60
2022-08-17T09:36:47.868Z,32.30
2022-08-17T09:39:20.134Z,32.60
2022-08-17T09:41:55.505Z,32.80
2022-08-17T09:44:23.757Z,32.90
2022-08-17T09:47:09.933Z,32.80
2022-08-17T09:49:46.780Z,32.60
2022-08-17T09:52:20.610Z,32.30
2022-08-17T09:54:47.265Z,32.50
2022-08-17T09:57:31.773Z,32.60
2022-08-17T10:00:01.973Z,33.00
2022-08-17T10:02:32.831Z,33.60
2022-08-17T10:05:02.481Z,33.90
2022-08-17T10:07:32.042Z,34.10
2022-08-17T10:10:13.565Z,34.20
2022-08-17T10:12:49.760Z,33.80
2022-08-17T10:15:23.709Z,34.00
2022-08-17T10:18:04.538Z,34.00
2022-08-17T10:20:33.386Z,33.80
2022-08-17T10:23:18.565Z,33.90
2022-08-17T10:26:04.358Z,34.10
2022-08-17T10:28:39.467Z,34.20
2022-08-17T10:31:33.230Z,33.90
2022-08-17T10:34:08.495Z,33.80
2022-08-17T10:36:38.034Z,33.80
2022-08-17T10:39:08.453Z,33.90
2022-08-17T10:41:44.941Z,33.90
2022-08-17T10:44:38.729Z,33.90
2022-08-17T10:47:14.999Z,33.60
2022-08-17T10:49:49.422Z,33.50
2022-08-17T10:52:18.953Z,33.80
2022-08-17T10:54:47.240Z,33.40
2022-08-17T10:57:32.225Z,33.90
2022-08-17T10:59:59.153Z,34.20
2022-08-17T11:02:30.357Z,34.10
2022-08-17T11:05:00.009Z,33.90
2022-08-17T11:07:45.498Z,33.00
2022-08-17T11:10:21.165Z,32.90
2022-08-17T11:12:57.056Z,32.70
2022-08-17T11:15:39.117Z,32.50
2022-08-17T11:18:05.691Z,32.40
2022-08-17T11:20:35.726Z,32.50
2022-08-17T11:23:21.063Z,32.50
2022-08-17T11:25:57.736Z,32.50
2022-08-17T11:28:28.912Z,32.60
2022-08-17T11:30:59.357Z,32.60
2022-08-17T11:33:29.765Z,32.80
2022-08-17T11:36:04.012Z,32.80
2022-08-17T11:38:34.684Z,32.80
2022-08-17T11:41:20.524Z,32.90
2022-08-17T11:43:56.209Z,33.00
2022-08-17T11:46:45.834Z,33.10
2022-08-17T11:49:57.697Z,33.10
2022-08-17T11:52:36.222Z,32.90
2022-08-17T11:55:24.197Z,32.60
2022-08-17T11:58:00.158Z,32.30
2022-08-17T12:00:45.029Z,32.20
2022-08-17T12:03:26.405Z,32.20
2022-08-17T12:06:00.990Z,31.80
2022-08-17T12:08:32.637Z,31.80
2022-08-17T12:11:12.395Z,31.80
2022-08-17T12:13:43.439Z,31.70
2022-08-17T12:16:13.605Z,31.60
2022-08-17T12:18:42.044Z,31.30
2022-08-17T12:21:26.520Z,31.10
2022-08-17T12:23:57.704Z,30.90
2022-08-17T12:26:31.349Z,30.70
2022-08-17T12:29:02.016Z,30.50
2022-08-17T12:31:30.927Z,30.30
2022-08-17T12:33:57.678Z,30.20
2022-08-17T12:36:24.905Z,30.00
2022-08-17T12:38:52.952Z,29.70
2022-08-17T12:41:32.449Z,29.60
2022-08-17T12:44:05.109Z,29.40
2022-08-17T12:46:51.365Z,29.30
2022-08-17T12:49:19.683Z,29.20
2022-08-17T12:51:46.268Z,29.10
2022-08-17T12:54:26.913Z,29.00
2022-08-17T12:56:53.653Z,28.90
2022-08-17T12:59:29.972Z,29.00
2022-08-17T13:01:57.331Z,29.10
2022-08-17T13:04:26.528Z,29.00
2022-08-17T13:06:59.666Z,29.00
2022-08-17T13:09:35.971Z,29.00
2022-08-17T13:12:07.683Z,29.00
2022-08-17T13:14:35.104Z,29.00
2022-08-17T13:17:01.729Z,29.20
2022-08-17T13:19:39.715Z,29.30
2022-08-17T13:22:09.608Z,29.30
2022-08-17T13:24:38.507Z,29.50
2022-08-17T13:27:08.260Z,29.60
2022-08-17T13:29:37.000Z,29.80
2022-08-17T13:32:13.078Z,30.00
2022-08-17T13:35:13.197Z,30.30
2022-08-17T13:37:32.340Z,30.60
2022-08-17T13:40:13.218Z,30.90
2022-08-17T13:42:51.799Z,31.20
2022-08-17T13:45:39.196Z,31.30
2022-08-17T13:48:13.858Z,31.20
2022-08-17T13:50:42.594Z,31.20
2022-08-17T13:53:15.997Z,31.20
2022-08-17T13:55:52.608Z,31.30
2022-08-17T13:58:23.192Z,31.40
2022-08-17T14:00:51.568Z,31.50
2022-08-17T14:03:18.428Z,31.70
2022-08-17T14:05:46.030Z,32.20
2022-08-17T14:08:13.154Z,32.40
2022-08-17T14:10:39.749Z,32.40
2022-08-17T14:13:06.578Z,32.40
2022-08-17T14:15:56.021Z,32.10
2022-08-17T14:18:34.277Z,31.80
2022-08-17T14:21:08.492Z,31.80
2022-08-17T14:23:35.377Z,31.50
2022-08-17T14:26:01.960Z,31.30
2022-08-17T14:28:28.542Z,31.40
2022-08-17T14:30:55.467Z,31.30
2022-08-17T14:33:22.542Z,31.10
2022-08-17T14:35:51.452Z,31.20
2022-08-17T14:38:18.747Z,31.20
2022-08-17T14:40:45.604Z,31.20
2022-08-17T14:43:12.215Z,31.20
2022-08-17T14:45:38.811Z,31.20
2022-08-17T14:48:08.424Z,31.40
2022-08-17T14:50:36.144Z,31.50
2022-08-17T14:53:03.848Z,31.60
2022-08-17T14:55:31.093Z,31.70
2022-08-17T14:57:57.817Z,31.90
2022-08-17T15:00:25.520Z,32.00
2022-08-17T15:02:55.834Z,31.80
2022-08-17T15:05:23.061Z,31.80
2022-08-17T15:07:49.856Z,31.50
2022-08-17T15:10:16.809Z,31.20
2022-08-17T15:12:43.388Z,31.20
2022-08-17T15:15:10.747Z,31.20
2022-08-17T15:17:45.277Z,31.30
2022-08-17T15:20:15.130Z,31.10
2022-08-17T15:22:42.017Z,31.10
2022-08-17T15:25:09.437Z,30.90
2022-08-17T15:27:36.055Z,31.00
2022-08-17T15:30:03.577Z,31.20
2022-08-17T15:32:31.484Z,31.50
2022-08-17T15:34:58.455Z,31.50
2022-08-17T15:37:25.165Z,31.50
2022-08-17T15:39:51.882Z,31.30
2022-08-17T15:42:19.238Z,31.10
2022-08-17T15:44:45.978Z,31.10
2022-08-17T15:47:12.768Z,31.00
2022-08-17T15:49:40.367Z,31.10
2022-08-17T15:52:15.202Z,31.20
2022-08-17T15:54:41.875Z,31.10
2022-08-17T15:57:11.905Z,31.00
2022-08-17T15:59:38.501Z,31.00
2022-08-17T16:03:13.091Z,30.90
2022-08-17T16:05:18.837Z,30.80
2022-08-17T16:07:46.968Z,30.70
2022-08-17T16:10:18.660Z,30.50
2022-08-17T16:12:46.091Z,30.40
2022-08-17T16:15:13.752Z,30.30
2022-08-17T16:17:41.480Z,30.10
2022-08-17T16:20:20.223Z,30.10
2022-08-17T16:22:47.789Z,30.10
2022-08-17T16:25:16.004Z,29.90
2022-08-17T16:27:42.678Z,29.60
2022-08-17T16:30:13.681Z,29.30
2022-08-17T16:32:44.000Z,29.00
2022-08-17T16:35:11.126Z,28.90
2022-08-17T16:37:39.508Z,28.80
2022-08-17T16:40:11.798Z,28.70
2022-08-17T16:42:39.467Z,28.70
2022-08-17T16:45:10.551Z,28.80
2022-08-17T16:47:37.280Z,28.80
2022-08-17T16:50:05.112Z,28.70
2022-08-17T16:52:32.993Z,28.70
2022-08-17T16:55:00.369Z,28.70
2022-08-17T16:57:26.973Z,28.70
2022-08-17T16:59:53.624Z,28.70
2022-08-17T17:02:27.289Z,28.70
2022-08-17T17:05:06.240Z,28.70
2022-08-17T17:07:51.947Z,28.70
2022-08-17T17:10:38.936Z,28.70
2022-08-17T17:13:07.909Z,28.60
2022-08-17T17:15:46.231Z,28.50
2022-08-17T17:18:13.095Z,28.40
2022-08-17T17:20:45.785Z,28.40
2022-08-17T17:23:18.453Z,28.40
2022-08-17T17:25:57.216Z,28.30
2022-08-17T17:28:29.156Z,28.40
2022-08-17T17:31:14.439Z,28.30
2022-08-17T17:33:45.125Z,28.20
2022-08-17T17:36:32.868Z,28.10
2022-08-17T17:39:07.068Z,28.10
2022-08-17T17:41:39.949Z,28.00
2022-08-17T17:44:07.801Z,27.90
2022-08-17T17:46:37.799Z,27.90
2022-08-17T17:49:04.910Z,27.80
2022-08-17T17:52:09.525Z,27.70
2022-08-17T17:54:47.829Z,27.60
2022-08-17T17:57:23.961Z,27.50
2022-08-17T18:00:00.501Z,27.40
2022-08-17T18:02:51.445Z,27.20
2022-08-17T18:05:28.381Z,27.20
2022-08-17T18:08:03.730Z,27.10
2022-08-17T18:10:48.961Z,27.00
2022-08-17T18:13:35.603Z,27.00
2022-08-17T18:16:03.156Z,26.80
2022-08-17T18:18:40.016Z,26.70
2022-08-17T18:21:09.109Z,26.60
2022-08-17T18:23:35.702Z,26.50
2022-08-17T18:26:02.352Z,26.40
2022-08-17T18:28:32.879Z,26.20
2022-08-17T18:31:10.241Z,26.10
2022-08-17T18:33:38.057Z,26.00
2022-08-17T18:36:05.921Z,25.90
2022-08-17T18:38:36.643Z,25.90
2022-08-17T18:41:20.055Z,25.90
2022-08-17T18:44:00.500Z,25.90
2022-08-17T18:46:29.848Z,25.70
2022-08-17T18:49:01.275Z,25.70
2022-08-17T18:51:40.619Z,25.60
2022-08-17T18:54:14.342Z,25.40
2022-08-17T18:56:51.242Z,25.30
2022-08-17T18:59:33.809Z,25.20
2022-08-17T19:02:16.019Z,25.20
2022-08-17T19:05:00.409Z,25.20
2022-08-17T19:07:31.501Z,25.20
2022-08-17T19:10:21.481Z,25.10
2022-08-17T19:12:54.959Z,25.10
2022-08-17T19:15:29.899Z,25.10
2022-08-17T19:18:14.709Z,24.90
2022-08-17T19:20:43.614Z,24.90
2022-08-17T19:23:16.776Z,24.80
2022-08-17T19:25:47.910Z,24.80
2022-08-17T19:28:22.321Z,24.60
2022-08-17T19:30:51.280Z,24.50
2022-08-17T19:33:17.942Z,24.30
2022-08-17T19:35:59.082Z,24.20
2022-08-17T19:38:28.692Z,24.10
2022-08-17T19:40:59.088Z,24.00
2022-08-17T19:43:25.658Z,24.00
2022-08-17T19:45:59.243Z,23.90
2022-08-17T19:48:25.796Z,23.80
2022-08-17T19:50:56.609Z,23.80
2022-08-17T19:53:41.764Z,23.90
2022-08-17T19:56:27.134Z,23.90
2022-08-17T19:58:56.988Z,23.90
2022-08-17T20:01:35.021Z,23.80
2022-08-17T20:04:16.574Z,23.70
2022-08-17T20:06:44.005Z,23.50
2022-08-17T20:09:15.268Z,23.30
2022-08-17T20:11:45.564Z,23.10
2022-08-17T20:14:14.432Z,23.00
2022-08-17T20:16:41.107Z,22.80
2022-08-17T20:19:15.507Z,22.70
2022-08-17T20:21:44.824Z,22.50
2022-08-17T20:24:21.238Z,22.40
2022-08-17T20:26:59.303Z,22.40
2022-08-17T20:29:39.954Z,22.40
2022-08-17T20:32:14.996Z,22.30
2022-08-17T20:34:42.680Z,22.30
2022-08-17T20:37:15.344Z,22.20
2022-08-17T20:39:43.063Z,22.10
2022-08-17T20:42:09.710Z,22.00
2022-08-17T20:44:39.537Z,21.80
2022-08-17T20:47:27.043Z,21.80
2022-08-17T20:50:05.089Z,21.80
2022-08-17T20:52:44.639Z,21.80
2022-08-17T20:55:52.300Z,21.90
2022-08-17T20:58:21.170Z,22.00
2022-08-17T21:00:56.633Z,22.10
2022-08-17T21:03:23.467Z,22.10
2022-08-17T21:06:00.607Z,22.30
2022-08-17T21:08:29.557Z,22.50
2022-08-17T21:10:56.544Z,22.60
2022-08-17T21:13:41.935Z,22.60
2022-08-17T21:16:10.474Z,22.60
2022-08-17T21:18:52.642Z,22.60
2022-08-17T21:21:37.888Z,22.60
2022-08-17T21:24:13.700Z,22.60
2022-08-17T21:26:50.637Z,22.60
2022-08-17T21:29:31.779Z,22.60
2022-08-17T21:31:59.253Z,22.60
2022-08-17T21:34:27.457Z,22.50
2022-08-17T21:36:54.096Z,22.40
2022-08-17T21:39:28.303Z,22.30
2022-08-17T21:41:59.752Z,22.30
2022-08-17T21:44:34.082Z,22.10
2022-08-17T21:47:19.234Z,22.10
2022-08-17T21:49:45.832Z,22.00
2022-08-17T21:52:15.888Z,22.00
2022-08-17T21:54:44.378Z,22.00
2022-08-17T21:57:20.220Z,22.00
2022-08-17T21:59:50.575Z,22.00
2022-08-17T22:02:18.437Z,22.00
2022-08-17T22:04:54.813Z,22.00
2022-08-17T22:07:32.539Z,21.90
2022-08-17T22:09:59.342Z,21.80
2022-08-17T22:12:25.931Z,21.70
2022-08-17T22:14:54.178Z,21.70
2022-08-17T22:17:22.395Z,21.60
2022-08-17T22:19:56.492Z,21.50
2022-08-17T22:22:33.617Z,21.40
2022-08-17T22:25:05.127Z,21.30
2022-08-17T22:27:48.666Z,21.20
2022-08-17T22:30:19.712Z,21.00
2022-08-17T22:32:46.641Z,20.90
2022-08-17T22:35:25.416Z,20.80
2022-08-17T22:37:52.188Z,20.70
2022-08-17T22:40:30.302Z,20.60
2022-08-17T22:42:57.425Z,20.50
2022-08-17T22:45:24.853Z,20.40
2022-08-17T22:47:53.508Z,20.30
2022-08-17T22:50:24.561Z,20.20
2022-08-17T22:53:16.113Z,20.30
2022-08-17T22:56:10.872Z,20.20
2022-08-17T22:59:08.615Z,20.20
2022-08-17T23:01:35.517Z,20.20
2022-08-17T23:04:05.776Z,20.20
2022-08-17T23:06:35.739Z,20.10
2022-08-17T23:09:04.040Z,20.10
2022-08-17T23:11:36.608Z,20.00
2022-08-17T23:14:14.478Z,19.90
2022-08-17T23:16:43.986Z,19.90
2022-08-17T23:19:15.374Z,19.80
2022-08-17T23:21:42.166Z,19.70
2022-08-17T23:24:09.003Z,19.70
2022-08-17T23:26:37.958Z,19.60
2022-08-17T23:29:07.682Z,19.50
2022-08-17T23:31:38.514Z,19.40
2022-08-17T23:34:05.785Z,19.40
2022-08-17T23:36:35.766Z,19.40
2022-08-17T23:39:02.352Z,19.40
2022-08-17T23:41:29.641Z,19.30
2022-08-17T23:43:56.287Z,19.30
2022-08-17T23:46:25.037Z,19.30
2022-08-17T23:48:54.653Z,19.20
2022-08-17T23:51:22.902Z,19.20
2022-08-17T23:53:50.281Z,19.20
2022-08-17T23:56:21.680Z,19.10
2022-08-17T23:58:48.249Z,19.20
